sensor_id;sensor_type;location;lat;lon;timestamp;pressure;altitude;pressure_sealevel;temperature
26158;BMP280;67284;44.782;10.282;2023-04-03T00:03:39;100658.22;;;13.47
26158;BMP280;67284;44.782;10.282;2023-04-03T00:08:33;100658.19;;;13.49
26158;BMP280;67284;44.782;10.282;2023-04-03T00:13:25;100654.69;;;13.50
26158;BMP280;67284;44.782;10.282;2023-04-03T00:18:17;100669.28;;;13.52
26158;BMP280;67284;44.782;10.282;2023-04-03T00:23:09;100664.13;;;13.52
26158;BMP280;67284;44.782;10.282;2023-04-03T00:28:01;100666.75;;;13.51
26158;BMP280;67284;44.782;10.282;2023-04-03T00:32:54;100663.44;;;13.46
26158;BMP280;67284;44.782;10.282;2023-04-03T00:37:46;100653.16;;;13.43
26158;BMP280;67284;44.782;10.282;2023-04-03T00:42:40;100653.16;;;13.43
26158;BMP280;67284;44.782;10.282;2023-04-03T00:47:32;100641.91;;;13.44
26158;BMP280;67284;44.782;10.282;2023-04-03T00:52:28;100636.75;;;13.44
26158;BMP280;67284;44.782;10.282;2023-04-03T00:57:21;100632.41;;;13.46
26158;BMP280;67284;44.782;10.282;2023-04-03T01:02:13;100634.09;;;13.47
26158;BMP280;67284;44.782;10.282;2023-04-03T01:07:18;100642.69;;;13.49
26158;BMP280;67284;44.782;10.282;2023-04-03T01:12:23;100647.03;;;13.45
26158;BMP280;67284;44.782;10.282;2023-04-03T01:17:32;100646.22;;;13.45
26158;BMP280;67284;44.782;10.282;2023-04-03T01:22:31;100635.00;;;13.46
26158;BMP280;67284;44.782;10.282;2023-04-03T01:27:26;100646.28;;;13.42
26158;BMP280;67284;44.782;10.282;2023-04-03T01:32:18;100642.94;;;13.37
26158;BMP280;67284;44.782;10.282;2023-04-03T01:37:10;100658.50;;;13.34
26158;BMP280;67284;44.782;10.282;2023-04-03T01:42:03;100641.28;;;13.33
26158;BMP280;67284;44.782;10.282;2023-04-03T01:47:01;100643.88;;;13.33
26158;BMP280;67284;44.782;10.282;2023-04-03T01:51:54;100637.00;;;13.33
26158;BMP280;67284;44.782;10.282;2023-04-03T01:56:46;100631.00;;;13.31
26158;BMP280;67284;44.782;10.282;2023-04-03T02:01:39;100628.47;;;13.28
26158;BMP280;67284;44.782;10.282;2023-04-03T02:06:31;100623.38;;;13.25
26158;BMP280;67284;44.782;10.282;2023-04-03T02:11:23;100619.16;;;13.21
26158;BMP280;67284;44.782;10.282;2023-04-03T02:16:15;100620.09;;;13.19
26158;BMP280;67284;44.782;10.282;2023-04-03T02:21:07;100611.53;;;13.15
26158;BMP280;67284;44.782;10.282;2023-04-03T02:26:07;100605.53;;;13.15
26158;BMP280;67284;44.782;10.282;2023-04-03T02:30:59;100610.75;;;13.13
26158;BMP280;67284;44.782;10.282;2023-04-03T02:35:55;100605.63;;;13.10
26158;BMP280;67284;44.782;10.282;2023-04-03T02:40:47;100611.66;;;13.11
26158;BMP280;67284;44.782;10.282;2023-04-03T02:45:39;100609.06;;;13.11
26158;BMP280;67284;44.782;10.282;2023-04-03T02:50:31;100606.59;;;13.06
26158;BMP280;67284;44.782;10.282;2023-04-03T02:55:23;100608.34;;;13.04
26158;BMP280;67284;44.782;10.282;2023-04-03T03:00:19;100600.63;;;13.03
26158;BMP280;67284;44.782;10.282;2023-04-03T03:05:11;100600.66;;;13.01
26158;BMP280;67284;44.782;10.282;2023-04-03T03:10:03;100603.28;;;13.00
26158;BMP280;67284;44.782;10.282;2023-04-03T03:14:55;100603.38;;;12.96
26158;BMP280;67284;44.782;10.282;2023-04-03T03:19:47;100603.44;;;12.93
26158;BMP280;67284;44.782;10.282;2023-04-03T03:24:39;100599.19;;;12.90
26158;BMP280;67284;44.782;10.282;2023-04-03T03:29:31;100610.31;;;12.92
26158;BMP280;67284;44.782;10.282;2023-04-03T03:34:23;100606.06;;;12.91
26158;BMP280;67284;44.782;10.282;2023-04-03T03:39:15;100612.97;;;12.89
26158;BMP280;67284;44.782;10.282;2023-04-03T03:44:07;100605.25;;;12.88
26158;BMP280;67284;44.782;10.282;2023-04-03T03:48:59;100596.69;;;12.86
26158;BMP280;67284;44.782;10.282;2023-04-03T03:53:52;100600.16;;;12.85
26158;BMP280;67284;44.782;10.282;2023-04-03T03:58:44;100607.06;;;12.84
26158;BMP280;67284;44.782;10.282;2023-04-03T04:03:37;100617.38;;;12.84
26158;BMP280;67284;44.782;10.282;2023-04-03T04:08:31;100622.56;;;12.84
26158;BMP280;67284;44.782;10.282;2023-04-03T04:13:23;100617.41;;;12.81
26158;BMP280;67284;44.782;10.282;2023-04-03T04:18:16;100625.22;;;12.77
26158;BMP280;67284;44.782;10.282;2023-04-03T04:23:10;100617.47;;;12.77
26158;BMP280;67284;44.782;10.282;2023-04-03T04:28:02;100620.97;;;12.76
26158;BMP280;67284;44.782;10.282;2023-04-03T04:32:54;100618.44;;;12.74
26158;BMP280;67284;44.782;10.282;2023-04-03T04:37:47;100614.94;;;12.75
26158;BMP280;67284;44.782;10.282;2023-04-03T04:42:40;100617.56;;;12.74
26158;BMP280;67284;44.782;10.282;2023-04-03T04:47:32;100620.16;;;12.72
26158;BMP280;67284;44.782;10.282;2023-04-03T04:52:24;100621.00;;;12.74
26158;BMP280;67284;44.782;10.282;2023-04-03T04:57:16;100625.34;;;12.72
26158;BMP280;67284;44.782;10.282;2023-04-03T05:02:09;100629.66;;;12.72
26158;BMP280;67284;44.782;10.282;2023-04-03T05:07:04;100628.78;;;12.71
26158;BMP280;67284;44.782;10.282;2023-04-03T05:11:59;100637.44;;;12.70
26158;BMP280;67284;44.782;10.282;2023-04-03T05:16:54;100635.72;;;12.69
26158;BMP280;67284;44.782;10.282;2023-04-03T05:21:50;100636.66;;;12.65
26158;BMP280;67284;44.782;10.282;2023-04-03T05:26:43;100638.44;;;12.63
26158;BMP280;67284;44.782;10.282;2023-04-03T05:31:36;100640.19;;;12.60
26158;BMP280;67284;44.782;10.282;2023-04-03T05:36:31;100645.41;;;12.57
26158;BMP280;67284;44.782;10.282;2023-04-03T05:41:28;100661.00;;;12.52
26158;BMP280;67284;44.782;10.282;2023-04-03T05:46:20;100667.97;;;12.49
26158;BMP280;67284;44.782;10.282;2023-04-03T05:51:24;100667.09;;;12.48
26158;BMP280;67284;44.782;10.282;2023-04-03T05:56:20;100662.78;;;12.47
26158;BMP280;67284;44.782;10.282;2023-04-03T06:01:12;100663.72;;;12.45
26158;BMP280;67284;44.782;10.282;2023-04-03T06:06:05;100670.53;;;12.47
26158;BMP280;67284;44.782;10.282;2023-04-03T06:10:57;100673.97;;;12.49
26158;BMP280;67284;44.782;10.282;2023-04-03T06:15:49;100681.69;;;12.49
26158;BMP280;67284;44.782;10.282;2023-04-03T06:20:40;100685.09;;;12.51
26158;BMP280;67284;44.782;10.282;2023-04-03T06:25:33;100686.81;;;12.52
26158;BMP280;67284;44.782;10.282;2023-04-03T06:30:25;100695.38;;;12.53
26158;BMP280;67284;44.782;10.282;2023-04-03T06:35:17;100697.03;;;12.57
26158;BMP280;67284;44.782;10.282;2023-04-03T06:40:18;100695.56;;;12.44
26158;BMP280;67284;44.782;10.282;2023-04-03T06:45:11;100701.91;;;12.27
26158;BMP280;67284;44.782;10.282;2023-04-03T06:50:03;100699.41;;;12.21
26158;BMP280;67284;44.782;10.282;2023-04-03T06:54:55;100696.97;;;12.12
26158;BMP280;67284;44.782;10.282;2023-04-03T06:59:49;100703.91;;;12.10
26158;BMP280;67284;44.782;10.282;2023-04-03T07:04:41;100703.09;;;12.05
26158;BMP280;67284;44.782;10.282;2023-04-03T07:09:33;100710.03;;;12.01
26158;BMP280;67284;44.782;10.282;2023-04-03T07:14:25;100706.69;;;11.96
26158;BMP280;67284;44.782;10.282;2023-04-03T07:19:17;100705.69;;;12.05
26158;BMP280;67284;44.782;10.282;2023-04-03T07:24:10;100702.09;;;12.15
26158;BMP280;67284;44.782;10.282;2023-04-03T07:29:07;100702.91;;;12.15
26158;BMP280;67284;44.782;10.282;2023-04-03T07:33:58;100702.91;;;12.15
26158;BMP280;67284;44.782;10.282;2023-04-03T07:38:50;100705.47;;;12.17
26158;BMP280;67284;44.782;10.282;2023-04-03T07:43:43;100706.31;;;12.19
26158;BMP280;67284;44.782;10.282;2023-04-03T07:48:35;100705.22;;;12.32
26158;BMP280;67284;44.782;10.282;2023-04-03T07:53:27;100702.38;;;12.48
26158;BMP280;67284;44.782;10.282;2023-04-03T07:58:19;100709.84;;;12.61
26158;BMP280;67284;44.782;10.282;2023-04-03T08:03:11;100712.25;;;12.73
26158;BMP280;67284;44.782;10.282;2023-04-03T08:08:05;100706.88;;;12.85
26158;BMP280;67284;44.782;10.282;2023-04-03T08:12:58;100709.34;;;12.91
26158;BMP280;67284;44.782;10.282;2023-04-03T08:17:50;100717.84;;;12.96
26158;BMP280;67284;44.782;10.282;2023-04-03T08:22:42;100716.88;;;13.01
26158;BMP280;67284;44.782;10.282;2023-04-03T08:27:34;100722.84;;;13.05
26158;BMP280;67284;44.782;10.282;2023-04-03T08:32:26;100720.97;;;13.13
26158;BMP280;67284;44.782;10.282;2023-04-03T08:37:18;100720.03;;;13.17
26158;BMP280;67284;44.782;10.282;2023-04-03T08:42:19;100712.09;;;13.24
26158;BMP280;67284;44.782;10.282;2023-04-03T08:52:35;100708.44;;;13.36
26158;BMP280;67284;44.782;10.282;2023-04-03T08:57:30;100710.94;;;13.40
26158;BMP280;67284;44.782;10.282;2023-04-03T09:02:41;100713.25;;;13.52
26158;BMP280;67284;44.782;10.282;2023-04-03T09:07:43;100710.50;;;13.59
26158;BMP280;67284;44.782;10.282;2023-04-03T09:12:39;100709.50;;;13.65
26158;BMP280;67284;44.782;10.282;2023-04-03T09:23:22;100704.91;;;13.77
26158;BMP280;67284;44.782;10.282;2023-04-03T09:28:16;100705.72;;;13.81
26158;BMP280;67284;44.782;10.282;2023-04-03T09:33:08;100701.97;;;13.92
26158;BMP280;67284;44.782;10.282;2023-04-03T09:42:59;100702.91;;;13.90
26158;BMP280;67284;44.782;10.282;2023-04-03T09:48:20;100703.53;;;13.99
26158;BMP280;67284;44.782;10.282;2023-04-03T09:53:27;100693.66;;;14.16
26158;BMP280;67284;44.782;10.282;2023-04-03T09:58:32;100686.63;;;14.22
26158;BMP280;67284;44.782;10.282;2023-04-03T10:03:39;100679.38;;;14.36
26158;BMP280;67284;44.782;10.282;2023-04-03T10:08:38;100683.25;;;14.52
26158;BMP280;67284;44.782;10.282;2023-04-03T10:13:32;100680.53;;;14.57
26158;BMP280;67284;44.782;10.282;2023-04-03T10:18:48;100673.38;;;14.66
26158;BMP280;67284;44.782;10.282;2023-04-03T10:23:51;100669.13;;;14.63
26158;BMP280;67284;44.782;10.282;2023-04-03T10:28:55;100662.09;;;14.68
26158;BMP280;67284;44.782;10.282;2023-04-03T10:44:31;100648.75;;;14.52
26158;BMP280;67284;44.782;10.282;2023-04-03T10:49:48;100639.09;;;14.57
26158;BMP280;67284;44.782;10.282;2023-04-03T11:00:06;100635.84;;;14.80
26158;BMP280;67284;44.782;10.282;2023-04-03T11:05:04;100638.19;;;14.89
26158;BMP280;67284;44.782;10.282;2023-04-03T11:10:04;100626.28;;;14.84
26158;BMP280;67284;44.782;10.282;2023-04-03T11:14:57;100625.66;;;14.74
26158;BMP280;67284;44.782;10.282;2023-04-03T11:20:10;100622.34;;;14.69
26158;BMP280;67284;44.782;10.282;2023-04-03T11:30:06;100612.53;;;14.80
26158;BMP280;67284;44.782;10.282;2023-04-03T11:35:02;100613.09;;;14.91
26158;BMP280;67284;44.782;10.282;2023-04-03T11:39:59;100601.75;;;14.95
26158;BMP280;67284;44.782;10.282;2023-04-03T11:45:16;100602.53;;;14.97
26158;BMP280;67284;44.782;10.282;2023-04-03T11:55:42;100583.97;;;15.12
26158;BMP280;67284;44.782;10.282;2023-04-03T12:05:38;100577.81;;;15.16
26158;BMP280;67284;44.782;10.282;2023-04-03T12:10:31;100570.97;;;15.13
26158;BMP280;67284;44.782;10.282;2023-04-03T12:15:50;100562.22;;;15.17
26158;BMP280;67284;44.782;10.282;2023-04-03T12:25:49;100552.34;;;15.30
26158;BMP280;67284;44.782;10.282;2023-04-03T12:30:42;100541.97;;;15.30
26158;BMP280;67284;44.782;10.282;2023-04-03T12:46:39;100532.50;;;15.29
26158;BMP280;67284;44.782;10.282;2023-04-03T12:51:43;100531.56;;;15.31
26158;BMP280;67284;44.782;10.282;2023-04-03T12:56:36;100533.19;;;15.34
26158;BMP280;67284;44.782;10.282;2023-04-03T13:01:28;100520.13;;;15.37
26158;BMP280;67284;44.782;10.282;2023-04-03T13:06:33;100512.13;;;15.44
26158;BMP280;67284;44.782;10.282;2023-04-03T13:11:30;100502.63;;;15.43
26158;BMP280;67284;44.782;10.282;2023-04-03T13:16:24;100495.69;;;15.44
26158;BMP280;67284;44.782;10.282;2023-04-03T13:21:30;100500.88;;;15.44
26158;BMP280;67284;44.782;10.282;2023-04-03T13:26:28;100495.69;;;15.44
26158;BMP280;67284;44.782;10.282;2023-04-03T13:31:27;100488.13;;;15.38
26158;BMP280;67284;44.782;10.282;2023-04-03T13:36:30;100481.75;;;15.48
26158;BMP280;67284;44.782;10.282;2023-04-03T13:41:25;100487.03;;;15.45
26158;BMP280;67284;44.782;10.282;2023-04-03T14:01:20;100501.84;;;15.14
26158;BMP280;67284;44.782;10.282;2023-04-03T14:06:15;100495.75;;;15.15
26158;BMP280;67284;44.782;10.282;2023-04-03T14:11:34;100486.97;;;15.20
26158;BMP280;67284;44.782;10.282;2023-04-03T14:16:30;100504.13;;;15.24
26158;BMP280;67284;44.782;10.282;2023-04-03T14:21:22;100504.97;;;15.25
26158;BMP280;67284;44.782;10.282;2023-04-03T14:26:21;100489.63;;;15.19
26158;BMP280;67284;44.782;10.282;2023-04-03T14:31:13;100486.38;;;15.11
26158;BMP280;67284;44.782;10.282;2023-04-03T14:36:14;100485.66;;;15.08
26158;BMP280;67284;44.782;10.282;2023-04-03T14:41:07;100484.56;;;15.13
26158;BMP280;67284;44.782;10.282;2023-04-03T14:51:12;100476.22;;;15.05
26158;BMP280;67284;44.782;10.282;2023-04-03T14:56:25;100468.59;;;15.01
26158;BMP280;67284;44.782;10.282;2023-04-03T15:01:18;100460.00;;;14.99
26158;BMP280;67284;44.782;10.282;2023-04-03T15:06:11;100471.41;;;14.93
26158;BMP280;67284;44.782;10.282;2023-04-03T15:11:04;100474.91;;;14.92
26158;BMP280;67284;44.782;10.282;2023-04-03T15:15:56;100476.72;;;14.89
26158;BMP280;67284;44.782;10.282;2023-04-03T15:20:49;100486.41;;;14.82
26158;BMP280;67284;44.782;10.282;2023-04-03T15:25:42;100479.56;;;14.81
26158;BMP280;67284;44.782;10.282;2023-04-03T15:30:36;100473.50;;;14.81
26158;BMP280;67284;44.782;10.282;2023-04-03T15:35:30;100465.94;;;14.75
26158;BMP280;67284;44.782;10.282;2023-04-03T15:40:22;100476.34;;;14.73
26158;BMP280;67284;44.782;10.282;2023-04-03T15:45:14;100475.47;;;14.74
26158;BMP280;67284;44.782;10.282;2023-04-03T15:50:06;100460.06;;;14.70
26158;BMP280;67284;44.782;10.282;2023-04-03T15:54:59;100463.59;;;14.67
26158;BMP280;67284;44.782;10.282;2023-04-03T15:59:51;100471.44;;;14.64
26158;BMP280;67284;44.782;10.282;2023-04-03T16:04:43;100467.25;;;14.60
26158;BMP280;67284;44.782;10.282;2023-04-03T16:09:35;100483.66;;;14.59
26158;BMP280;67284;44.782;10.282;2023-04-03T16:14:30;100482.09;;;14.54
26158;BMP280;67284;44.782;10.282;2023-04-03T16:19:22;100491.72;;;14.51
26158;BMP280;67284;44.782;10.282;2023-04-03T16:24:16;100487.50;;;14.47
26158;BMP280;67284;44.782;10.282;2023-04-03T16:29:09;100481.53;;;14.45
26158;BMP280;67284;44.782;10.282;2023-04-03T16:34:01;100480.72;;;14.43
26158;BMP280;67284;44.782;10.282;2023-04-03T16:38:53;100482.50;;;14.41
26158;BMP280;67284;44.782;10.282;2023-04-03T16:43:45;100488.66;;;14.37
26158;BMP280;67284;44.782;10.282;2023-04-03T16:48:37;100496.53;;;14.34
26158;BMP280;67284;44.782;10.282;2023-04-03T16:53:29;100503.47;;;14.32
26158;BMP280;67284;44.782;10.282;2023-04-03T16:58:21;100497.50;;;14.30
26158;BMP280;67284;44.782;10.282;2023-04-03T17:03:14;100508.81;;;14.26
26158;BMP280;67284;44.782;10.282;2023-04-03T17:08:06;100504.69;;;14.19
26158;BMP280;67284;44.782;10.282;2023-04-03T17:12:58;100499.69;;;14.13
26158;BMP280;67284;44.782;10.282;2023-04-03T17:17:51;100498.91;;;14.09
26158;BMP280;67284;44.782;10.282;2023-04-03T17:22:43;100508.50;;;14.06
26158;BMP280;67284;44.782;10.282;2023-04-03T17:27:36;100506.84;;;14.02
26158;BMP280;67284;44.782;10.282;2023-04-03T17:32:28;100500.06;;;13.98
26158;BMP280;67284;44.782;10.282;2023-04-03T17:37:21;100509.59;;;13.96
26158;BMP280;67284;44.782;10.282;2023-04-03T17:42:12;100510.56;;;13.92
26158;BMP280;67284;44.782;10.282;2023-04-03T17:47:04;100510.56;;;13.92
26158;BMP280;67284;44.782;10.282;2023-04-03T17:51:56;100527.00;;;13.90
26158;BMP280;67284;44.782;10.282;2023-04-03T17:56:48;100534.81;;;13.88
26158;BMP280;67284;44.782;10.282;2023-04-03T18:01:43;100527.97;;;13.86
26158;BMP280;67284;44.782;10.282;2023-04-03T18:06:41;100543.50;;;13.86
26158;BMP280;67284;44.782;10.282;2023-04-03T18:11:34;100557.34;;;13.85
26158;BMP280;67284;44.782;10.282;2023-04-03T18:16:27;100564.16;;;13.87
26158;BMP280;67284;44.782;10.282;2023-04-03T18:21:19;100571.84;;;13.90
26158;BMP280;67284;44.782;10.282;2023-04-03T18:26:12;100581.28;;;13.91
26158;BMP280;67284;44.782;10.282;2023-04-03T18:31:13;100581.28;;;13.91
26158;BMP280;67284;44.782;10.282;2023-04-03T18:36:06;100589.97;;;13.90
26158;BMP280;67284;44.782;10.282;2023-04-03T18:40:59;100591.72;;;13.88
26158;BMP280;67284;44.782;10.282;2023-04-03T18:45:52;100595.19;;;13.87
26158;BMP280;67284;44.782;10.282;2023-04-03T18:50:44;100593.50;;;13.86
26158;BMP280;67284;44.782;10.282;2023-04-03T18:55:36;100605.59;;;13.84
26158;BMP280;67284;44.782;10.282;2023-04-03T19:00:28;100609.97;;;13.82
26158;BMP280;67284;44.782;10.282;2023-04-03T19:05:20;100614.31;;;13.80
26158;BMP280;67284;44.782;10.282;2023-04-03T19:10:13;100621.25;;;13.80
26158;BMP280;67284;44.782;10.282;2023-04-03T19:15:08;100625.63;;;13.78
26158;BMP280;67284;44.782;10.282;2023-04-03T19:20:00;100640.34;;;13.74
26158;BMP280;67284;44.782;10.282;2023-04-03T19:24:52;100637.75;;;13.74
26158;BMP280;67284;44.782;10.282;2023-04-03T19:29:43;100636.94;;;13.72
26158;BMP280;67284;44.782;10.282;2023-04-03T19:34:35;100644.75;;;13.71
26158;BMP280;67284;44.782;10.282;2023-04-03T19:39:27;100646.53;;;13.67
26158;BMP280;67284;44.782;10.282;2023-04-03T19:44:21;100652.59;;;13.66
26158;BMP280;67284;44.782;10.282;2023-04-03T19:49:13;100650.03;;;13.65
26158;BMP280;67284;44.782;10.282;2023-04-03T19:54:05;100652.66;;;13.63
26158;BMP280;67284;44.782;10.282;2023-04-03T19:58:57;100662.19;;;13.61
26158;BMP280;67284;44.782;10.282;2023-04-03T20:03:49;100673.47;;;13.57
26158;BMP280;67284;44.782;10.282;2023-04-03T20:08:41;100667.50;;;13.55
26158;BMP280;67284;44.782;10.282;2023-04-03T20:13:34;100668.38;;;13.54
26158;BMP280;67284;44.782;10.282;2023-04-03T20:18:25;100675.28;;;13.54
26158;BMP280;67284;44.782;10.282;2023-04-03T20:23:19;100673.63;;;13.52
26158;BMP280;67284;44.782;10.282;2023-04-03T20:28:12;100682.31;;;13.48
26158;BMP280;67284;44.782;10.282;2023-04-03T20:33:06;100683.22;;;13.45
26158;BMP280;67284;44.782;10.282;2023-04-03T20:37:58;100685.81;;;13.45
26158;BMP280;67284;44.782;10.282;2023-04-03T20:42:50;100693.66;;;13.41
26158;BMP280;67284;44.782;10.282;2023-04-03T20:47:43;100693.72;;;13.39
26158;BMP280;67284;44.782;10.282;2023-04-03T20:52:35;100700.66;;;13.37
26158;BMP280;67284;44.782;10.282;2023-04-03T20:57:27;100692.88;;;13.39
26158;BMP280;67284;44.782;10.282;2023-04-03T21:02:19;100696.31;;;13.38
26158;BMP280;67284;44.782;10.282;2023-04-03T21:23:04;100703.38;;;13.30
26158;BMP280;67284;44.782;10.282;2023-04-03T21:27:57;100704.25;;;13.30
26158;BMP280;67284;44.782;10.282;2023-04-03T21:32:49;100717.16;;;13.30
26158;BMP280;67284;44.782;10.282;2023-04-03T21:37:42;100712.03;;;13.29
26158;BMP280;67284;44.782;10.282;2023-04-03T21:42:33;100716.38;;;13.27
26158;BMP280;67284;44.782;10.282;2023-04-03T21:47:25;100725.06;;;13.23
26158;BMP280;67284;44.782;10.282;2023-04-03T21:52:17;100726.81;;;13.22
26158;BMP280;67284;44.782;10.282;2023-04-03T21:57:09;100721.72;;;13.18
26158;BMP280;67284;44.782;10.282;2023-04-03T22:02:02;100740.75;;;13.14
26158;BMP280;67284;44.782;10.282;2023-04-03T22:06:55;100743.41;;;13.11
26158;BMP280;67284;44.782;10.282;2023-04-03T22:11:50;100740.81;;;13.11
26158;BMP280;67284;44.782;10.282;2023-04-03T22:16:42;100743.38;;;13.12
26158;BMP280;67284;44.782;10.282;2023-04-03T22:21:37;100746.84;;;13.10
26158;BMP280;67284;44.782;10.282;2023-04-03T22:26:28;100754.66;;;13.07
26158;BMP280;67284;44.782;10.282;2023-04-03T22:31:20;100759.88;;;13.05
26158;BMP280;67284;44.782;10.282;2023-04-03T22:36:13;100765.91;;;13.04
26158;BMP280;67284;44.782;10.282;2023-04-03T22:41:06;100771.94;;;13.05
26158;BMP280;67284;44.782;10.282;2023-04-03T22:45:59;100784.84;;;13.05
26158;BMP280;67284;44.782;10.282;2023-04-03T22:50:52;100779.69;;;13.05
26158;BMP280;67284;44.782;10.282;2023-04-03T22:55:52;100775.38;;;13.05
26158;BMP280;67284;44.782;10.282;2023-04-03T23:00:44;100786.53;;;13.06
26158;BMP280;67284;44.782;10.282;2023-04-03T23:05:37;100794.31;;;13.04
26158;BMP280;67284;44.782;10.282;2023-04-03T23:10:29;100795.19;;;13.05
26158;BMP280;67284;44.782;10.282;2023-04-03T23:15:21;100790.06;;;13.02
26158;BMP280;67284;44.782;10.282;2023-04-03T23:20:13;100796.94;;;13.03
26158;BMP280;67284;44.782;10.282;2023-04-03T23:25:06;100798.69;;;13.01
26158;BMP280;67284;44.782;10.282;2023-04-03T23:29:58;100794.41;;;13.00
26158;BMP280;67284;44.782;10.282;2023-04-03T23:34:49;100791.03;;;12.97
26158;BMP280;67284;44.782;10.282;2023-04-03T23:39:41;100793.63;;;12.95
26158;BMP280;67284;44.782;10.282;2023-04-03T23:44:33;100795.38;;;12.93
26158;BMP280;67284;44.782;10.282;2023-04-03T23:49:25;100799.72;;;12.93
26158;BMP280;67284;44.782;10.282;2023-04-03T23:54:18;100801.44;;;12.92
26158;BMP280;67284;44.782;10.282;2023-04-03T23:59:09;100806.63;;;12.91
